AGGM

Munda Airport

Solomon Islands

AGGM 180600Z 09005KT 9999 HZ FEW017 BKN300 29/24 Q1008

Observed Flight Rules
Aug-18 @ 06:00 UTC (3 hours ago)
 
Visual Flight Rules
Wind Visibility Clouds Conditions
90° at 5 knots 10,000+ meters
  • Few at 1,700' AGL
  • Broken at 30,000' AGL
  • Haze
Temperatures Readings
Current 29°C / 84°F
Dewpoint 24°C / 75°F
Humidity 74%
Altimeter 29.76" Hg
Pressure 1008 hPa
Elevation 6
Observed Flight Rules
Aug-18 @ 06:00 UTC
(3 hours ago)
 
VFR
Wind Visibility
90° at 5 knots 10,000+ meters
Clouds Conditions
  • Few at 1,700' AGL
  • Broken at 30,000' AGL
  • Haze
Temperature Dewpoint
29°C / 84°F 24°C / 75°F
Humidity Altimeter Pressure
74% 29.76" Hg 1008 hPa